Time;durP1;ratioP1;P1;durP2;ratioP2;P2;SDS_P1;SDS_P2;PMS_P1;PMS_P2;Temp;Humidity;BMP_temperature;BMP_pressure;BME280_temperature;BME280_humidity;BME280_pressure;Samples;Min_cycle;Max_cycle;Signal;HPM_P1;HPM_P2
2023/04/27 00:04:37;;;;;;;0.63;0.63;;;;;;;-147.53;100.00;57128.34;10161733;29;20050;-84
2023/04/27 00:09:39;;;;;;;0.50;0.43;;;;;;;-147.53;100.00;57128.34;10173021;29;20106;-84
2023/04/27 00:14:41;;;;;;;3.42;1.83;;;;;;;-147.53;100.00;57128.34;10162490;29;20469;-84
2023/04/27 00:19:43;;;;;;;0.57;0.43;;;;;;;-147.53;100.00;57128.34;10171532;29;20127;-84
2023/04/27 00:24:44;;;;;;;0.28;0.28;;;;;;;-147.53;100.00;57128.34;10180503;29;20044;-84
2023/04/27 00:29:46;;;;;;;0.43;0.43;;;;;;;-147.53;100.00;57128.34;10181602;29;20051;-85
2023/04/27 00:34:48;;;;;;;1.70;0.40;;;;;;;-147.53;100.00;57128.34;10186916;29;20725;-85
2023/04/27 00:39:49;;;;;;;1.17;0.73;;;;;;;-147.53;100.00;57128.34;10186003;29;20055;-85
2023/04/27 00:44:51;;;;;;;0.75;0.30;;;;;;;-147.53;100.00;57128.34;10176290;29;20050;-84
2023/04/27 00:49:53;;;;;;;0.63;0.50;;;;;;;-147.53;100.00;57128.34;10200320;29;20051;-85
2023/04/27 00:54:56;;;;;;;2.10;0.75;;;;;;;-147.53;100.00;57128.34;10204488;29;20055;-84
2023/04/27 01:00:03;;;;;;;0.52;0.52;;;;;;;-147.53;100.00;57128.34;10175309;29;20513;-83
2023/04/27 01:05:05;;;;;;;0.75;0.65;;;;;;;-147.53;100.00;57128.34;10144186;29;20131;-84
2023/04/27 01:10:08;;;;;;;0.30;0.30;;;;;;;-147.53;100.00;57128.34;10182634;29;20055;-84
2023/04/27 01:15:10;;;;;;;1.30;0.98;;;;;;;-147.53;100.00;57128.34;10155389;29;20135;-84
2023/04/27 01:20:13;;;;;;;0.88;0.65;;;;;;;-147.53;100.00;57128.34;10188483;29;20121;-84
2023/04/27 01:25:18;;;;;;;2.13;0.75;;;;;;;-147.53;100.00;57128.34;10160302;29;20040;-83
2023/04/27 01:30:23;;;;;;;1.08;0.68;;;;;;;-147.53;100.00;57128.34;10184827;29;20052;-83
2023/04/27 01:35:25;;;;;;;0.40;0.40;;;;;;;-147.53;100.00;57128.34;10144132;29;20103;-85
2023/04/27 01:40:33;;;;;;;0.95;0.73;;;;;;;-147.53;100.00;57128.34;10169959;29;20051;-83
2023/04/27 01:45:35;;;;;;;0.90;0.80;;;;;;;-147.53;100.00;57128.34;10164307;29;20136;-83
2023/04/27 01:50:36;;;;;;;1.15;0.60;;;;;;;-147.53;100.00;57128.34;10193712;29;20048;-84
2023/04/27 01:55:40;;;;;;;0.38;0.38;;;;;;;-147.53;100.00;57128.34;10175743;29;20047;-84
2023/04/27 02:00:42;;;;;;;0.50;0.50;;;;;;;-147.53;100.00;57128.34;10152267;29;20051;-83
2023/04/27 02:05:44;;;;;;;1.63;1.38;;;;;;;-147.53;100.00;57128.34;10184047;29;20046;-83
2023/04/27 02:10:46;;;;;;;0.20;0.20;;;;;;;-147.53;100.00;57128.34;10151414;29;20080;-85
2023/04/27 02:15:50;;;;;;;0.55;0.55;;;;;;;-147.53;100.00;57128.34;10174527;29;20059;-84
2023/04/27 02:20:52;;;;;;;0.45;0.45;;;;;;;-147.53;100.00;57128.34;10137253;29;20152;-84
2023/04/27 02:25:54;;;;;;;0.20;0.20;;;;;;;-147.53;100.00;57128.34;10189424;29;20122;-84
2023/04/27 02:30:55;;;;;;;0.30;0.30;;;;;;;-147.53;100.00;57128.34;10190287;29;20058;-84
2023/04/27 02:35:57;;;;;;;0.70;0.70;;;;;;;-147.53;100.00;57128.34;10166005;29;20052;-84
2023/04/27 02:40:59;;;;;;;6.78;1.13;;;;;;;-147.53;100.00;57128.34;10180604;29;20135;-83
2023/04/27 02:46:03;;;;;;;1.20;1.10;;;;;;;-147.53;100.00;57128.34;10188311;29;20135;-83
2023/04/27 02:51:05;;;;;;;0.45;0.45;;;;;;;-147.53;100.00;57128.34;10172619;29;20060;-83
2023/04/27 02:56:07;;;;;;;1.08;0.80;;;;;;;-147.53;100.00;57128.34;10183375;29;20051;-83
2023/04/27 03:01:08;;;;;;;0.57;0.57;;;;;;;-147.53;100.00;57128.34;10172126;29;20066;-83
2023/04/27 03:06:10;;;;;;;0.43;0.43;;;;;;;-147.53;100.00;57128.34;10162560;29;20088;-83
2023/04/27 03:11:12;;;;;;;1.27;1.17;;;;;;;-147.53;100.00;57128.34;10192000;29;20051;-84
2023/04/27 03:16:13;;;;;;;0.10;0.10;;;;;;;-147.53;100.00;57128.34;10217920;29;20071;-84
2023/04/27 03:21:17;;;;;;;1.13;0.85;;;;;;;-147.53;100.00;57128.34;10203144;29;20119;-85
2023/04/27 03:26:22;;;;;;;0.30;0.30;;;;;;;-147.53;100.00;57128.34;10144976;29;20144;-83
2023/04/27 03:31:24;;;;;;;0.52;0.50;;;;;;;-147.53;100.00;57128.34;10157114;29;20062;-84
2023/04/27 03:36:26;;;;;;;0.60;0.60;;;;;;;-147.53;100.00;57128.34;10175491;29;20040;-83
2023/04/27 03:41:27;;;;;;;0.45;0.45;;;;;;;-147.53;100.00;57128.34;10166247;29;20173;-83
2023/04/27 03:46:29;;;;;;;1.30;0.93;;;;;;;-147.53;100.00;57128.34;10144374;29;20539;-84
2023/04/27 03:51:32;;;;;;;0.60;0.60;;;;;;;-147.53;100.00;57128.34;10195207;29;20052;-84
2023/04/27 03:56:33;;;;;;;0.30;0.30;;;;;;;-147.53;100.00;57128.34;10185602;29;20125;-84
2023/04/27 04:01:36;;;;;;;0.57;0.50;;;;;;;-147.53;100.00;57128.34;10157434;29;20056;-84
2023/04/27 04:06:37;;;;;;;1.42;1.17;;;;;;;-147.53;100.00;57128.34;10159149;29;20079;-84
2023/04/27 04:11:39;;;;;;;0.40;0.40;;;;;;;-147.53;100.00;57128.34;10179218;29;20066;-84
2023/04/27 04:16:43;;;;;;;0.43;0.43;;;;;;;-147.53;100.00;57128.34;10146320;29;20122;-84
2023/04/27 04:21:44;;;;;;;0.40;0.35;;;;;;;-147.53;100.00;57128.34;10164886;29;20120;-83
2023/04/27 04:26:47;;;;;;;0.45;0.45;;;;;;;-147.53;100.00;57128.34;10187522;29;20044;-83
2023/04/27 04:31:49;;;;;;;0.63;0.55;;;;;;;-147.53;100.00;57128.34;10180782;29;20094;-83
2023/04/27 04:36:50;;;;;;;0.30;0.28;;;;;;;-147.53;100.00;57128.34;10172713;29;20143;-84
2023/04/27 04:41:53;;;;;;;0.52;0.50;;;;;;;-147.53;100.00;57128.34;10178952;29;20102;-84
2023/04/27 04:46:56;;;;;;;1.08;0.70;;;;;;;-147.53;100.00;57128.34;10178237;29;20080;-83
2023/04/27 04:52:00;;;;;;;0.40;0.40;;;;;;;-147.53;100.00;57128.34;10170523;29;20056;-84
2023/04/27 04:57:02;;;;;;;0.30;0.30;;;;;;;-147.53;100.00;57128.34;10155623;29;20059;-84
2023/04/27 05:02:03;;;;;;;1.35;0.82;;;;;;;-147.53;100.00;57128.34;10187431;29;20123;-84
2023/04/27 05:07:05;;;;;;;0.95;0.90;;;;;;;-147.53;100.00;57128.34;10169618;29;20406;-84
2023/04/27 05:12:07;;;;;;;0.82;0.82;;;;;;;-147.53;100.00;57128.34;10154917;29;20163;-86
2023/04/27 05:17:09;;;;;;;0.93;0.93;;;;;;;-147.53;100.00;57128.34;10181324;29;20100;-82
2023/04/27 05:22:10;;;;;;;2.22;0.28;;;;;;;-147.53;100.00;57128.34;10162107;29;20064;-85
2023/04/27 05:27:13;;;;;;;0.77;0.77;;;;;;;-147.53;100.00;57128.34;10185916;29;20134;-85
2023/04/27 05:32:15;;;;;;;0.20;0.20;;;;;;;-147.53;100.00;57128.34;10140026;29;20063;-85
2023/04/27 05:37:17;;;;;;;1.58;1.10;;;;;;;-147.53;100.00;57128.34;10168741;29;20079;-85
2023/04/27 05:42:18;;;;;;;1.25;1.15;;;;;;;-147.53;100.00;57128.34;10203688;29;20053;-86
2023/04/27 05:47:21;;;;;;;0.73;0.73;;;;;;;-147.53;100.00;57128.34;10189538;29;20297;-86
2023/04/27 05:52:29;;;;;;;1.92;1.08;;;;;;;-147.53;100.00;57128.34;10180388;29;20154;-86
2023/04/27 05:57:45;;;;;;;2.13;1.08;;;;;;;-147.53;100.00;57128.34;10155866;29;20048;-87
2023/04/27 06:03:22;;;;;;;1.38;0.80;;;;;;;-147.53;100.00;57128.34;10133099;29;20059;-87
2023/04/27 06:09:13;;;;;;;2.38;1.27;;;;;;;-147.53;100.00;57128.34;10170749;29;20054;-89
2023/04/27 06:15:10;;;;;;;2.40;1.27;;;;;;;-147.53;100.00;57128.34;10128618;29;20058;-88
2023/04/27 06:21:31;;;;;;;2.33;1.20;;;;;;;-147.53;100.00;57128.34;10165293;29;20115;-87
2023/04/27 06:27:18;;;;;;;;;;;;;;;;;;;;;
2023/04/27 06:34:09;;;;;;;;;;;;;;;;;;;;;
2023/04/27 06:40:06;;;;;;;0.55;0.55;;;;;;;-147.53;100.00;57128.34;10055999;29;20405;-86
2023/04/27 06:45:23;;;;;;;3.80;1.52;;;;;;;-147.53;100.00;57128.34;10142218;29;20078;-88
2023/04/27 06:50:32;;;;;;;2.15;1.50;;;;;;;-147.53;100.00;57128.34;10151334;29;20052;-86
2023/04/27 06:56:01;;;;;;;2.13;1.42;;;;;;;-147.53;100.00;57128.34;10170042;29;20071;-88
2023/04/27 07:26:04;;;;;;;1.80;1.10;;;;;;;-147.53;100.00;57128.34;9965253;29;20046;-88
2023/04/27 07:31:26;;;;;;;4.00;1.10;;;;;;;-147.53;100.00;57128.34;10119686;29;20052;-89
2023/04/27 07:36:46;;;;;;;5.90;1.20;;;;;;;-147.53;100.00;57128.34;10140156;29;20062;-87
2023/04/27 07:42:08;;;;;;;2.55;1.27;;;;;;;-147.53;100.00;57128.34;10142942;29;20516;-89
2023/04/27 07:47:26;;;;;;;2.90;0.88;;;;;;;-147.53;100.00;57128.34;10148673;29;20481;-88
2023/04/27 07:52:32;;;;;;;3.80;1.42;;;;;;;-147.53;100.00;57128.34;10125047;29;20066;-88
2023/04/27 07:57:43;;;;;;;5.28;1.05;;;;;;;-147.53;100.00;57128.34;10147947;29;20055;-87
2023/04/27 08:02:49;;;;;;;1.70;1.08;;;;;;;-147.53;100.00;57128.34;10146126;29;20091;-88
2023/04/27 08:07:52;;;;;;;1.15;0.73;;;;;;;-147.53;100.00;57128.34;10135309;29;20052;-89
2023/04/27 08:12:56;;;;;;;2.55;0.85;;;;;;;-147.53;100.00;57128.34;10147038;29;20056;-90
2023/04/27 08:18:03;;;;;;;2.33;1.02;;;;;;;-147.53;100.00;57128.34;10147188;29;20131;-89
2023/04/27 08:23:23;;;;;;;6.15;1.30;;;;;;;-147.53;100.00;57128.34;10129535;29;20424;-88
2023/04/27 08:28:40;;;;;;;1.70;1.00;;;;;;;-147.53;100.00;57128.34;10130391;29;20062;-88
2023/04/27 08:33:51;;;;;;;2.15;1.17;;;;;;;-147.53;100.00;57128.34;10162282;29;20640;-88
2023/04/27 08:39:06;;;;;;;2.30;1.17;;;;;;;-147.53;100.00;57128.34;10130147;29;20052;-88
2023/04/27 08:44:17;;;;;;;5.50;1.52;;;;;;;-147.53;100.00;57128.34;10143620;29;20091;-88
2023/04/27 08:49:40;;;;;;;3.95;1.33;;;;;;;-147.53;100.00;57128.34;10119610;29;20056;-89
2023/04/27 08:54:48;;;;;;;2.47;1.38;;;;;;;-147.53;100.00;57128.34;10132686;29;20167;-88
2023/04/27 09:05:50;;;;;;;2.60;1.42;;;;;;;-147.53;100.00;57128.34;10110411;29;20135;-88
2023/04/27 09:11:05;;;;;;;3.13;1.55;;;;;;;-147.53;100.00;57128.34;10131122;29;20063;-88
2023/04/27 09:16:07;;;;;;;1.95;1.10;;;;;;;-147.53;100.00;57128.34;10161672;29;20083;-88
2023/04/27 09:21:42;;;;;;;1.60;1.15;;;;;;;-147.53;100.00;57128.34;10162125;29;20067;-88
2023/04/27 09:27:21;;;;;;;1.90;1.10;;;;;;;-147.53;100.00;57128.34;10141924;29;20446;-88
2023/04/27 09:32:41;;;;;;;2.85;1.02;;;;;;;-147.53;100.00;57128.34;10116404;29;20511;-88
2023/04/27 09:38:18;;;;;;;2.38;1.30;;;;;;;-147.53;100.00;57128.34;10144862;29;20056;-88
2023/04/27 09:43:26;;;;;;;2.55;1.35;;;;;;;-147.53;100.00;57128.34;10122248;29;20187;-87
2023/04/27 09:48:40;;;;;;;0.95;0.80;;;;;;;-147.53;100.00;57128.34;10144903;29;20052;-86
2023/04/27 09:53:52;;;;;;;3.70;1.40;;;;;;;-147.53;100.00;57128.34;10128917;29;20048;-87
2023/04/27 09:59:30;;;;;;;5.22;1.30;;;;;;;-147.53;100.00;57128.34;10161432;29;20084;-86
2023/04/27 10:04:57;;;;;;;4.28;1.23;;;;;;;-147.53;100.00;57128.34;10101517;29;20390;-86
2023/04/27 10:10:01;;;;;;;2.20;1.00;;;;;;;-147.53;100.00;57128.34;10144981;29;20859;-86
2023/04/27 10:15:18;;;;;;;4.45;1.35;;;;;;;-147.53;100.00;57128.34;10146350;29;20208;-86
2023/04/27 10:20:31;;;;;;;2.72;1.25;;;;;;;-147.53;100.00;57128.34;10152642;29;20060;-86
2023/04/27 10:25:39;;;;;;;2.22;1.20;;;;;;;-147.53;100.00;57128.34;10162443;29;20056;-87
2023/04/27 10:30:48;;;;;;;5.28;2.00;;;;;;;-147.53;100.00;57128.34;10160289;29;20533;-87
2023/04/27 10:36:00;;;;;;;4.05;1.65;;;;;;;-147.53;100.00;57128.34;10130817;29;20556;-86
2023/04/27 10:41:13;;;;;;;1.77;1.13;;;;;;;-147.53;100.00;57128.34;10146955;29;20477;-85
2023/04/27 10:46:20;;;;;;;2.72;1.27;;;;;;;-147.53;100.00;57128.34;10172293;29;20067;-87
2023/04/27 10:51:32;;;;;;;2.97;1.42;;;;;;;-147.53;100.00;57128.34;10177282;29;20509;-86
2023/04/27 10:56:34;;;;;;;4.05;1.65;;;;;;;-147.53;100.00;57128.34;10156669;29;20448;-87
2023/04/27 11:01:39;;;;;;;5.53;1.63;;;;;;;-147.53;100.00;57128.34;10126441;29;20535;-87
2023/04/27 11:06:53;;;;;;;4.15;1.58;;;;;;;-147.53;100.00;57128.34;10141445;29;20604;-88
2023/04/27 11:11:59;;;;;;;3.30;1.52;;;;;;;-147.53;100.00;57128.34;10141254;29;20071;-88
2023/04/27 11:17:08;;;;;;;4.38;1.55;;;;;;;-147.53;100.00;57128.34;10158112;29;20052;-87
2023/04/27 11:22:10;;;;;;;4.05;1.65;;;;;;;-147.53;100.00;57128.34;10141352;29;20171;-86
2023/04/27 11:27:22;;;;;;;4.07;1.80;;;;;;;-147.53;100.00;57128.34;10126446;29;20051;-87
2023/04/27 11:32:33;;;;;;;2.90;1.52;;;;;;;-147.53;100.00;57128.34;10144946;29;20643;-87
2023/04/27 11:37:44;;;;;;;2.22;1.38;;;;;;;-147.53;100.00;57128.34;10140176;29;20056;-86
2023/04/27 11:43:03;;;;;;;3.60;1.60;;;;;;;-147.53;100.00;57128.34;10140196;29;20058;-87
2023/04/27 11:48:16;;;;;;;2.55;1.70;;;;;;;-147.53;100.00;57128.34;10140772;29;20410;-87
2023/04/27 11:53:36;;;;;;;4.25;1.60;;;;;;;-147.53;100.00;57128.34;10139381;29;20059;-87
2023/04/27 11:58:40;;;;;;;2.63;1.33;;;;;;;-147.53;100.00;57128.34;10122489;29;20071;-86
2023/04/27 12:03:47;;;;;;;3.38;1.45;;;;;;;-147.53;100.00;57128.34;10136551;29;20548;-86
2023/04/27 12:08:50;;;;;;;3.38;1.75;;;;;;;-147.53;100.00;57128.34;10155475;29;20055;-86
2023/04/27 12:13:53;;;;;;;2.28;1.45;;;;;;;-147.53;100.00;57128.34;10107645;29;20052;-85
2023/04/27 12:18:57;;;;;;;5.25;1.98;;;;;;;-147.53;100.00;57128.34;10120014;29;20112;-87
2023/04/27 12:24:04;;;;;;;8.45;1.40;;;;;;;-147.53;100.00;57128.34;10122382;29;20131;-86
2023/04/27 12:29:06;;;;;;;3.72;1.75;;;;;;;-147.53;100.00;57128.34;10142074;29;20747;-87
2023/04/27 12:34:10;;;;;;;7.32;1.55;;;;;;;-147.53;100.00;57128.34;10137244;29;20461;-87
2023/04/27 12:39:19;;;;;;;5.57;2.35;;;;;;;-147.53;100.00;57128.34;10146331;29;20675;-87
2023/04/27 12:44:29;;;;;;;;;;;;;;;-147.53;100.00;57128.34;10160640;29;20058;-86
2023/04/27 12:49:37;;;;;;;3.42;1.50;;;;;;;-147.53;100.00;57128.34;10148056;29;19923;-88
2023/04/27 12:54:48;;;;;;;2.72;1.30;;;;;;;-147.53;100.00;57128.34;10145785;29;20060;-86
2023/04/27 12:59:53;;;;;;;3.22;1.52;;;;;;;-147.53;100.00;57128.34;10160233;29;20189;-87
2023/04/27 13:04:58;;;;;;;3.10;1.75;;;;;;;-147.53;100.00;57128.34;10145379;29;20124;-87
2023/04/27 13:10:07;;;;;;;3.10;1.52;;;;;;;-147.53;100.00;57128.34;10130806;29;20083;-86
2023/04/27 13:15:09;;;;;;;3.90;1.83;;;;;;;-147.53;100.00;57128.34;10199580;29;20071;-85
2023/04/27 13:20:14;;;;;;;4.00;1.80;;;;;;;-147.53;100.00;57128.34;10186895;29;20080;-86
2023/04/27 13:25:16;;;;;;;3.80;1.58;;;;;;;-147.53;100.00;57128.34;10163829;29;20052;-87
2023/04/27 13:30:23;;;;;;;3.90;1.80;;;;;;;-147.53;100.00;57128.34;10130212;29;20478;-87
2023/04/27 13:35:25;;;;;;;2.92;1.38;;;;;;;-147.53;100.00;57128.34;10162202;29;20416;-86
2023/04/27 13:40:28;;;;;;;3.38;1.65;;;;;;;-147.53;100.00;57128.34;10145768;29;20056;-87
2023/04/27 13:45:31;;;;;;;4.95;2.20;;;;;;;-147.53;100.00;57128.34;10129440;29;20423;-88
2023/04/27 13:50:32;;;;;;;3.88;1.73;;;;;;;-147.53;100.00;57128.34;10146906;29;20585;-85
2023/04/27 13:55:36;;;;;;;3.83;1.98;;;;;;;-147.53;100.00;57128.34;10162004;29;20052;-85
2023/04/27 14:00:37;;;;;;;4.03;1.88;;;;;;;-147.53;100.00;57128.34;10101850;29;20060;-86
2023/04/27 14:05:40;;;;;;;5.15;1.92;;;;;;;-147.53;100.00;57128.34;10119361;29;20054;-84
2023/04/27 14:10:43;;;;;;;4.00;1.73;;;;;;;-147.53;100.00;57128.34;10134973;29;20092;-86
2023/04/27 14:15:45;;;;;;;7.18;2.08;;;;;;;-147.53;100.00;57128.34;10130031;29;20071;-84
2023/04/27 14:20:47;;;;;;;3.80;1.88;;;;;;;-147.53;100.00;57128.34;10131584;29;20068;-83
2023/04/27 14:26:02;;;;;;;2.95;1.70;;;;;;;-147.53;100.00;57128.34;10158708;29;20418;-86
2023/04/27 14:31:31;;;;;;;4.03;2.17;;;;;;;-147.53;100.00;57128.34;10114015;29;20130;-87
2023/04/27 14:37:02;;;;;;;4.63;2.15;;;;;;;-147.53;100.00;57128.34;10110532;29;20053;-87
2023/04/27 14:42:17;;;;;;;4.43;2.15;;;;;;;-147.53;100.00;57128.34;10085466;29;20442;-87
2023/04/27 14:47:24;;;;;;;3.47;1.80;;;;;;;-147.53;100.00;57128.34;10135483;29;20054;-84
2023/04/27 14:52:28;;;;;;;7.13;2.33;;;;;;;-147.53;100.00;57128.34;10098363;29;20056;-86
2023/04/27 14:57:43;;;;;;;5.00;2.10;;;;;;;-147.53;100.00;57128.34;10094147;29;20060;-85
2023/04/27 15:02:49;;;;;;;4.43;1.98;;;;;;;-147.53;100.00;57128.34;10094521;29;20072;-86
2023/04/27 15:07:50;;;;;;;3.75;1.80;;;;;;;-147.53;100.00;57128.34;10109327;29;20067;-87
2023/04/27 15:12:52;;;;;;;5.15;1.90;;;;;;;-147.53;100.00;57128.34;10107049;29;20084;-86
2023/04/27 15:17:56;;;;;;;4.45;1.92;;;;;;;-147.53;100.00;57128.34;10075562;29;20052;-85
2023/04/27 15:23:01;;;;;;;4.22;2.20;;;;;;;-147.53;100.00;57128.34;10112698;29;20072;-86
2023/04/27 15:28:03;;;;;;;5.43;1.63;;;;;;;-147.53;100.00;57128.34;10159715;29;20052;-83
2023/04/27 15:33:05;;;;;;;2.80;1.30;;;;;;;-147.53;100.00;57128.34;10169639;29;20050;-83
2023/04/27 15:38:11;;;;;;;4.93;2.03;;;;;;;-147.53;100.00;57128.34;10195399;29;20056;-82
2023/04/27 15:43:13;;;;;;;6.65;2.22;;;;;;;-147.53;100.00;57128.34;10177575;29;20048;-82
2023/04/27 15:48:15;;;;;;;4.90;1.83;;;;;;;-147.53;100.00;57128.34;10153528;29;20062;-82
2023/04/27 15:53:17;;;;;;;10.15;2.00;;;;;;;-147.53;100.00;57128.34;10157171;29;20671;-83
2023/04/27 15:58:18;;;;;;;4.28;1.70;;;;;;;-147.53;100.00;57128.34;10112214;29;20073;-84
2023/04/27 16:03:20;;;;;;;4.28;2.03;;;;;;;-147.53;100.00;57128.34;10122915;29;20056;-86
2023/04/27 16:08:26;;;;;;;5.30;1.70;;;;;;;-147.53;100.00;57128.34;10115271;29;20045;-82
2023/04/27 16:13:28;;;;;;;3.33;1.83;;;;;;;-147.53;100.00;57128.34;10124720;29;20060;-83
2023/04/27 16:18:29;;;;;;;3.92;1.95;;;;;;;-147.53;100.00;57128.34;10094304;29;20049;-82
2023/04/27 16:23:31;;;;;;;3.63;1.77;;;;;;;-147.53;100.00;57128.34;10135452;29;20092;-82
2023/04/27 16:28:33;;;;;;;4.32;1.85;;;;;;;-147.53;100.00;57128.34;10135856;29;20120;-83
2023/04/27 16:33:35;;;;;;;4.32;1.80;;;;;;;-147.53;100.00;57128.34;10091745;29;20052;-84
2023/04/27 16:38:38;;;;;;;3.78;1.95;;;;;;;-147.53;100.00;57128.34;10133646;29;20151;-82
2023/04/27 16:43:40;;;;;;;5.25;1.77;;;;;;;-147.53;100.00;57128.34;10125707;29;20137;-82
2023/04/27 16:48:41;;;;;;;4.93;2.08;;;;;;;-147.53;100.00;57128.34;10102529;29;20041;-84
2023/04/27 16:53:43;;;;;;;5.22;2.28;;;;;;;-147.53;100.00;57128.34;10099397;29;20056;-83
2023/04/27 16:58:45;;;;;;;5.30;2.28;;;;;;;-147.53;100.00;57128.34;10134067;29;20056;-84
2023/04/27 17:03:46;;;;;;;4.70;2.15;;;;;;;-147.53;100.00;57128.34;10095502;29;20052;-85
2023/04/27 17:08:48;;;;;;;4.97;2.33;;;;;;;-147.53;100.00;57128.34;10146558;29;20087;-84
2023/04/27 17:13:50;;;;;;;2.70;1.40;;;;;;;-147.53;100.00;57128.34;10107908;29;20056;-84
2023/04/27 17:18:51;;;;;;;8.20;2.38;;;;;;;-147.53;100.00;57128.34;10137350;29;20056;-85
2023/04/27 17:23:53;;;;;;;3.83;2.00;;;;;;;-147.53;100.00;57128.34;10142448;29;20048;-84
2023/04/27 17:28:58;;;;;;;5.47;2.15;;;;;;;-147.53;100.00;57128.34;10143397;29;20139;-84
2023/04/27 17:34:01;;;;;;;6.35;1.92;;;;;;;-147.53;100.00;57128.34;10160293;29;20652;-83
2023/04/27 17:39:03;;;;;;;2.58;1.23;;;;;;;-147.53;100.00;57128.34;10128939;29;20052;-83
2023/04/27 17:44:05;;;;;;;2.92;1.42;;;;;;;-147.53;100.00;57128.34;10150692;29;20264;-83
2023/04/27 17:49:06;;;;;;;3.45;1.75;;;;;;;-147.53;100.00;57128.34;10148574;29;20055;-84
2023/04/27 17:54:08;;;;;;;3.63;1.48;;;;;;;-147.53;100.00;57128.34;10150421;29;20431;-83
2023/04/27 17:59:10;;;;;;;4.30;1.65;;;;;;;-147.53;100.00;57128.34;10164649;29;20100;-83
2023/04/27 18:04:12;;;;;;;2.17;1.20;;;;;;;-147.53;100.00;57128.34;10175702;29;20064;-82
2023/04/27 18:09:14;;;;;;;4.55;1.50;;;;;;;-147.53;100.00;57128.34;10159755;29;20048;-82
2023/04/27 18:14:16;;;;;;;3.67;1.33;;;;;;;-147.53;100.00;57128.34;10110521;29;20049;-83
2023/04/27 18:19:18;;;;;;;4.05;1.70;;;;;;;-147.53;100.00;57128.34;10146130;29;20599;-82
2023/04/27 18:24:20;;;;;;;3.35;1.58;;;;;;;-147.53;100.00;57128.34;10136874;29;20067;-82
2023/04/27 18:29:21;;;;;;;2.40;1.25;;;;;;;-147.53;100.00;57128.34;10125769;29;20465;-82
2023/04/27 18:34:23;;;;;;;3.58;1.60;;;;;;;-147.53;100.00;57128.34;10143399;29;20080;-81
2023/04/27 18:39:25;;;;;;;2.70;1.35;;;;;;;-147.53;100.00;57128.34;10143223;29;20052;-81
2023/04/27 18:44:26;;;;;;;3.92;1.50;;;;;;;-147.53;100.00;57128.34;10126379;29;20132;-81
2023/04/27 18:49:28;;;;;;;4.45;1.67;;;;;;;-147.53;100.00;57128.34;10119018;29;20088;-82
2023/04/27 18:54:30;;;;;;;4.10;1.70;;;;;;;-147.53;100.00;57128.34;10124008;29;20059;-84
2023/04/27 18:59:31;;;;;;;;;;;;;;;-147.53;100.00;57128.34;10131149;29;20432;-83
2023/04/27 19:04:34;;;;;;;2.00;1.20;;;;;;;-147.53;100.00;57128.34;10133565;29;19931;-82
2023/04/27 19:09:35;;;;;;;3.53;1.77;;;;;;;-147.53;100.00;57128.34;10158246;29;20044;-83
2023/04/27 19:14:39;;;;;;;3.95;1.77;;;;;;;-147.53;100.00;57128.34;10160074;29;20413;-82
2023/04/27 19:19:40;;;;;;;2.33;1.38;;;;;;;-147.53;100.00;57128.34;10158396;29;20052;-82
2023/04/27 19:24:42;;;;;;;2.88;1.52;;;;;;;-147.53;100.00;57128.34;10159120;29;20548;-83
2023/04/27 19:29:49;;;;;;;4.50;1.55;;;;;;;-147.53;100.00;57128.34;10159176;29;20071;-82
2023/04/27 19:34:55;;;;;;;1.77;1.20;;;;;;;-147.53;100.00;57128.34;10143678;29;20107;-83
2023/04/27 19:39:56;;;;;;;2.70;1.45;;;;;;;-147.53;100.00;57128.34;10166650;29;20469;-82
2023/04/27 19:44:59;;;;;;;3.03;1.65;;;;;;;-147.53;100.00;57128.34;10165544;29;20056;-82
2023/04/27 19:50:01;;;;;;;3.65;1.75;;;;;;;-147.53;100.00;57128.34;10166478;29;20432;-82
2023/04/27 19:55:03;;;;;;;3.08;1.83;;;;;;;-147.53;100.00;57128.34;10167565;29;20052;-83
2023/04/27 20:00:07;;;;;;;2.40;1.55;;;;;;;-147.53;100.00;57128.34;10155445;29;20883;-82
2023/04/27 20:05:13;;;;;;;4.30;1.80;;;;;;;-147.53;100.00;57128.34;10150654;29;20270;-82
2023/04/27 20:10:15;;;;;;;2.65;1.48;;;;;;;-147.53;100.00;57128.34;10151369;29;20052;-82
2023/04/27 20:15:17;;;;;;;4.20;2.17;;;;;;;-147.53;100.00;57128.34;10166682;29;20058;-82
2023/04/27 20:20:19;;;;;;;4.25;2.22;;;;;;;-147.53;100.00;57128.34;10150110;29;20049;-82
2023/04/27 20:25:21;;;;;;;5.40;2.20;;;;;;;-147.53;100.00;57128.34;10170416;29;20059;-83
2023/04/27 20:30:23;;;;;;;3.85;1.83;;;;;;;-147.53;100.00;57128.34;10169926;29;20052;-82
2023/04/27 20:35:25;;;;;;;2.03;1.25;;;;;;;-147.53;100.00;57128.34;10169973;29;20048;-82
2023/04/27 20:40:26;;;;;;;4.95;2.30;;;;;;;-147.53;100.00;57128.34;10168231;29;20485;-82
2023/04/27 20:45:29;;;;;;;4.25;2.05;;;;;;;-147.53;100.00;57128.34;10166286;29;20410;-82
2023/04/27 20:50:31;;;;;;;8.32;2.70;;;;;;;-147.53;100.00;57128.34;10148919;29;20044;-82
2023/04/27 20:55:33;;;;;;;4.18;1.83;;;;;;;-147.53;100.00;57128.34;10165952;29;20068;-82
2023/04/27 21:00:34;;;;;;;2.55;1.67;;;;;;;-147.53;100.00;57128.34;10148567;29;20086;-82
2023/04/27 21:05:36;;;;;;;4.20;2.28;;;;;;;-147.53;100.00;57128.34;10164385;29;20055;-83
2023/04/27 21:10:38;;;;;;;4.50;2.38;;;;;;;-147.53;100.00;57128.34;10159617;29;20040;-81
2023/04/27 21:15:39;;;;;;;10.57;2.00;;;;;;;-147.53;100.00;57128.34;10164415;29;20131;-81
2023/04/27 21:20:41;;;;;;;2.75;1.60;;;;;;;-147.53;100.00;57128.34;10165241;29;20051;-82
2023/04/27 21:25:44;;;;;;;3.20;1.88;;;;;;;-147.53;100.00;57128.34;10164167;29;20059;-83
2023/04/27 21:30:46;;;;;;;3.60;1.55;;;;;;;-147.53;100.00;57128.34;10147659;29;20648;-83
2023/04/27 21:35:47;;;;;;;3.78;1.85;;;;;;;-147.53;100.00;57128.34;10164152;29;20138;-82
2023/04/27 21:40:49;;;;;;;3.20;1.50;;;;;;;-147.53;100.00;57128.34;10163892;29;20064;-82
2023/04/27 21:45:50;;;;;;;3.95;2.15;;;;;;;-147.53;100.00;57128.34;10163553;29;20055;-83
2023/04/27 21:50:52;;;;;;;4.47;2.30;;;;;;;-147.53;100.00;57128.34;10145897;29;20078;-82
2023/04/27 21:55:55;;;;;;;4.60;1.95;;;;;;;-147.53;100.00;57128.34;10162505;29;20276;-82
2023/04/27 22:00:57;;;;;;;4.38;2.20;;;;;;;-147.53;100.00;57128.34;10162054;29;20056;-82
2023/04/27 22:05:58;;;;;;;4.10;1.95;;;;;;;-147.53;100.00;57128.34;10162207;29;20052;-82
2023/04/27 22:11:00;;;;;;;3.70;2.15;;;;;;;-147.53;100.00;57128.34;10148122;29;20527;-84
2023/04/27 22:16:02;;;;;;;4.82;1.83;;;;;;;-147.53;100.00;57128.34;10162080;29;20066;-82
2023/04/27 22:21:04;;;;;;;3.42;2.03;;;;;;;-147.53;100.00;57128.34;10144097;29;20132;-82
2023/04/27 22:26:06;;;;;;;3.55;1.40;;;;;;;-147.53;100.00;57128.34;10160258;29;20453;-82
2023/04/27 22:31:09;;;;;;;4.00;1.30;;;;;;;-147.53;100.00;57128.34;10160842;29;20053;-83
2023/04/27 22:36:11;;;;;;;3.08;1.95;;;;;;;-147.53;100.00;57128.34;10161213;29;20063;-83
2023/04/27 22:41:13;;;;;;;5.32;2.35;;;;;;;-147.53;100.00;57128.34;10136861;29;20436;-82
2023/04/27 22:46:14;;;;;;;3.15;1.80;;;;;;;-147.53;100.00;57128.34;10162911;29;20088;-83
2023/04/27 22:51:16;;;;;;;3.13;1.67;;;;;;;-147.53;100.00;57128.34;10161012;29;20160;-82
2023/04/27 22:56:17;;;;;;;4.47;1.48;;;;;;;-147.53;100.00;57128.34;10167276;29;20075;-82
2023/04/27 23:01:19;;;;;;;3.15;1.85;;;;;;;-147.53;100.00;57128.34;10182508;29;20125;-83
2023/04/27 23:06:21;;;;;;;3.75;1.85;;;;;;;-147.53;100.00;57128.34;10158509;29;20505;-82
2023/04/27 23:11:22;;;;;;;3.33;1.58;;;;;;;-147.53;100.00;57128.34;10159080;29;20060;-83
2023/04/27 23:16:28;;;;;;;2.33;1.17;;;;;;;-147.53;100.00;57128.34;10158088;29;20075;-83
2023/04/27 23:21:30;;;;;;;6.05;2.03;;;;;;;-147.53;100.00;57128.34;10158179;29;20992;-82
2023/04/27 23:26:32;;;;;;;1.33;0.95;;;;;;;-147.53;100.00;57128.34;10141981;29;20100;-84
2023/04/27 23:31:33;;;;;;;3.63;2.20;;;;;;;-147.53;100.00;57128.34;10158577;29;20588;-83
2023/04/27 23:36:35;;;;;;;3.90;2.47;;;;;;;-147.53;100.00;57128.34;10144805;29;20134;-83